sensor_id;sensor_type;location;lat;lon;timestamp;P1;durP1;ratioP1;P2;durP2;ratioP2
7573;SDS011;3828;48.922;9.116;2023-05-31T00:00:06;0.70;;;0.70;;
7573;SDS011;3828;48.922;9.116;2023-05-31T00:02:35;0.70;;;0.70;;
7573;SDS011;3828;48.922;9.116;2023-05-31T00:05:02;0.90;;;0.90;;
7573;SDS011;3828;48.922;9.116;2023-05-31T00:07:29;0.70;;;0.70;;
7573;SDS011;3828;48.922;9.116;2023-05-31T00:09:56;0.70;;;0.70;;
7573;SDS011;3828;48.922;9.116;2023-05-31T00:12:24;0.80;;;0.80;;
7573;SDS011;3828;48.922;9.116;2023-05-31T00:14:51;0.80;;;0.80;;
7573;SDS011;3828;48.922;9.116;2023-05-31T00:17:18;0.80;;;0.80;;
7573;SDS011;3828;48.922;9.116;2023-05-31T00:19:46;0.70;;;0.70;;
7573;SDS011;3828;48.922;9.116;2023-05-31T00:22:13;1.13;;;1.13;;
7573;SDS011;3828;48.922;9.116;2023-05-31T00:24:42;0.60;;;0.60;;
7573;SDS011;3828;48.922;9.116;2023-05-31T00:27:09;0.73;;;0.73;;
7573;SDS011;3828;48.922;9.116;2023-05-31T00:29:36;0.63;;;0.63;;
7573;SDS011;3828;48.922;9.116;2023-05-31T00:32:03;0.80;;;0.80;;
7573;SDS011;3828;48.922;9.116;2023-05-31T00:34:30;0.80;;;0.80;;
7573;SDS011;3828;48.922;9.116;2023-05-31T00:36:59;0.70;;;0.70;;
7573;SDS011;3828;48.922;9.116;2023-05-31T00:39:25;0.70;;;0.70;;
7573;SDS011;3828;48.922;9.116;2023-05-31T00:41:52;0.87;;;0.87;;
7573;SDS011;3828;48.922;9.116;2023-05-31T00:44:20;0.70;;;0.70;;
7573;SDS011;3828;48.922;9.116;2023-05-31T00:46:47;1.00;;;1.00;;
7573;SDS011;3828;48.922;9.116;2023-05-31T00:49:14;0.67;;;0.67;;
7573;SDS011;3828;48.922;9.116;2023-05-31T00:51:41;0.80;;;0.80;;
7573;SDS011;3828;48.922;9.116;2023-05-31T00:54:10;0.70;;;0.70;;
7573;SDS011;3828;48.922;9.116;2023-05-31T00:56:37;0.70;;;0.70;;
7573;SDS011;3828;48.922;9.116;2023-05-31T00:59:04;0.80;;;0.80;;
7573;SDS011;3828;48.922;9.116;2023-05-31T01:01:31;0.80;;;0.80;;
7573;SDS011;3828;48.922;9.116;2023-05-31T01:03:58;0.80;;;0.80;;
7573;SDS011;3828;48.922;9.116;2023-05-31T01:06:27;0.80;;;0.80;;
7573;SDS011;3828;48.922;9.116;2023-05-31T01:08:57;0.80;;;0.80;;
7573;SDS011;3828;48.922;9.116;2023-05-31T01:11:29;0.60;;;0.60;;
7573;SDS011;3828;48.922;9.116;2023-05-31T01:14:08;0.70;;;0.70;;
7573;SDS011;3828;48.922;9.116;2023-05-31T01:16:41;0.80;;;0.80;;
7573;SDS011;3828;48.922;9.116;2023-05-31T01:19:16;0.67;;;0.67;;
7573;SDS011;3828;48.922;9.116;2023-05-31T01:21:59;0.70;;;0.70;;
7573;SDS011;3828;48.922;9.116;2023-05-31T01:24:41;0.70;;;0.70;;
7573;SDS011;3828;48.922;9.116;2023-05-31T01:27:19;0.90;;;0.90;;
7573;SDS011;3828;48.922;9.116;2023-05-31T01:29:47;0.70;;;0.70;;
7573;SDS011;3828;48.922;9.116;2023-05-31T01:32:15;0.70;;;0.70;;
7573;SDS011;3828;48.922;9.116;2023-05-31T01:34:43;0.90;;;0.90;;
7573;SDS011;3828;48.922;9.116;2023-05-31T01:37:10;0.80;;;0.80;;
7573;SDS011;3828;48.922;9.116;2023-05-31T01:39:37;0.80;;;0.80;;
7573;SDS011;3828;48.922;9.116;2023-05-31T01:42:05;0.70;;;0.70;;
7573;SDS011;3828;48.922;9.116;2023-05-31T01:44:35;0.80;;;0.80;;
7573;SDS011;3828;48.922;9.116;2023-05-31T01:47:07;0.67;;;0.67;;
7573;SDS011;3828;48.922;9.116;2023-05-31T01:49:35;0.73;;;0.73;;
7573;SDS011;3828;48.922;9.116;2023-05-31T01:52:03;0.70;;;0.70;;
7573;SDS011;3828;48.922;9.116;2023-05-31T01:54:32;0.60;;;0.60;;
7573;SDS011;3828;48.922;9.116;2023-05-31T01:57:00;0.80;;;0.80;;
7573;SDS011;3828;48.922;9.116;2023-05-31T01:59:29;0.87;;;0.87;;
7573;SDS011;3828;48.922;9.116;2023-05-31T02:01:57;0.70;;;0.70;;
7573;SDS011;3828;48.922;9.116;2023-05-31T02:04:24;0.70;;;0.70;;
7573;SDS011;3828;48.922;9.116;2023-05-31T02:06:51;0.63;;;0.63;;
7573;SDS011;3828;48.922;9.116;2023-05-31T02:09:19;0.80;;;0.80;;
7573;SDS011;3828;48.922;9.116;2023-05-31T02:11:47;0.70;;;0.70;;
7573;SDS011;3828;48.922;9.116;2023-05-31T02:14:14;0.70;;;0.70;;
7573;SDS011;3828;48.922;9.116;2023-05-31T02:16:41;0.80;;;0.80;;
7573;SDS011;3828;48.922;9.116;2023-05-31T02:19:09;0.80;;;0.80;;
7573;SDS011;3828;48.922;9.116;2023-05-31T02:21:38;0.70;;;0.70;;
7573;SDS011;3828;48.922;9.116;2023-05-31T02:24:06;0.70;;;0.70;;
7573;SDS011;3828;48.922;9.116;2023-05-31T02:26:33;0.70;;;0.70;;
7573;SDS011;3828;48.922;9.116;2023-05-31T02:28:59;0.70;;;0.70;;
7573;SDS011;3828;48.922;9.116;2023-05-31T02:31:27;0.80;;;0.80;;
7573;SDS011;3828;48.922;9.116;2023-05-31T02:33:53;0.70;;;0.70;;
7573;SDS011;3828;48.922;9.116;2023-05-31T02:36:22;0.80;;;0.80;;
7573;SDS011;3828;48.922;9.116;2023-05-31T02:38:50;0.60;;;0.60;;
7573;SDS011;3828;48.922;9.116;2023-05-31T02:41:17;0.80;;;0.80;;
7573;SDS011;3828;48.922;9.116;2023-05-31T02:43:43;0.80;;;0.80;;
7573;SDS011;3828;48.922;9.116;2023-05-31T02:46:10;0.70;;;0.70;;
7573;SDS011;3828;48.922;9.116;2023-05-31T02:48:37;0.70;;;0.70;;
7573;SDS011;3828;48.922;9.116;2023-05-31T02:51:04;0.80;;;0.80;;
7573;SDS011;3828;48.922;9.116;2023-05-31T02:53:33;0.70;;;0.70;;
7573;SDS011;3828;48.922;9.116;2023-05-31T02:55:59;0.87;;;0.87;;
7573;SDS011;3828;48.922;9.116;2023-05-31T02:58:26;0.70;;;0.70;;
7573;SDS011;3828;48.922;9.116;2023-05-31T03:00:53;0.80;;;0.80;;
7573;SDS011;3828;48.922;9.116;2023-05-31T03:03:20;0.80;;;0.80;;
7573;SDS011;3828;48.922;9.116;2023-05-31T03:05:47;0.80;;;0.80;;
7573;SDS011;3828;48.922;9.116;2023-05-31T03:08:14;0.70;;;0.70;;
7573;SDS011;3828;48.922;9.116;2023-05-31T03:10:43;0.83;;;0.83;;
7573;SDS011;3828;48.922;9.116;2023-05-31T03:13:09;0.83;;;0.83;;
7573;SDS011;3828;48.922;9.116;2023-05-31T03:15:36;0.80;;;0.80;;
7573;SDS011;3828;48.922;9.116;2023-05-31T03:18:04;0.80;;;0.80;;
7573;SDS011;3828;48.922;9.116;2023-05-31T03:20:31;0.70;;;0.70;;
7573;SDS011;3828;48.922;9.116;2023-05-31T03:22:58;0.80;;;0.80;;
7573;SDS011;3828;48.922;9.116;2023-05-31T03:25:25;0.80;;;0.80;;
7573;SDS011;3828;48.922;9.116;2023-05-31T03:27:54;0.90;;;0.90;;
7573;SDS011;3828;48.922;9.116;2023-05-31T03:30:22;0.80;;;0.80;;
7573;SDS011;3828;48.922;9.116;2023-05-31T03:32:48;0.80;;;0.80;;
7573;SDS011;3828;48.922;9.116;2023-05-31T03:35:15;0.70;;;0.70;;
7573;SDS011;3828;48.922;9.116;2023-05-31T03:37:42;0.80;;;0.80;;
7573;SDS011;3828;48.922;9.116;2023-05-31T03:40:10;0.80;;;0.80;;
7573;SDS011;3828;48.922;9.116;2023-05-31T03:42:36;0.80;;;0.80;;
7573;SDS011;3828;48.922;9.116;2023-05-31T03:45:05;0.70;;;0.70;;
7573;SDS011;3828;48.922;9.116;2023-05-31T03:47:33;0.77;;;0.77;;
7573;SDS011;3828;48.922;9.116;2023-05-31T03:50:00;0.70;;;0.70;;
7573;SDS011;3828;48.922;9.116;2023-05-31T03:52:28;0.90;;;0.90;;
7573;SDS011;3828;48.922;9.116;2023-05-31T03:54:55;0.87;;;0.87;;
7573;SDS011;3828;48.922;9.116;2023-05-31T03:57:22;0.80;;;0.80;;
7573;SDS011;3828;48.922;9.116;2023-05-31T03:59:49;0.80;;;0.80;;
7573;SDS011;3828;48.922;9.116;2023-05-31T04:02:18;0.70;;;0.70;;
7573;SDS011;3828;48.922;9.116;2023-05-31T04:04:44;0.70;;;0.70;;
7573;SDS011;3828;48.922;9.116;2023-05-31T04:07:11;0.80;;;0.80;;
7573;SDS011;3828;48.922;9.116;2023-05-31T04:09:38;0.90;;;0.90;;
7573;SDS011;3828;48.922;9.116;2023-05-31T04:12:05;0.87;;;0.87;;
7573;SDS011;3828;48.922;9.116;2023-05-31T04:14:32;0.80;;;0.80;;
7573;SDS011;3828;48.922;9.116;2023-05-31T04:17:00;0.80;;;0.80;;
7573;SDS011;3828;48.922;9.116;2023-05-31T04:19:28;0.90;;;0.90;;
7573;SDS011;3828;48.922;9.116;2023-05-31T04:21:55;0.80;;;0.80;;
7573;SDS011;3828;48.922;9.116;2023-05-31T04:24:22;0.97;;;0.97;;
7573;SDS011;3828;48.922;9.116;2023-05-31T04:26:49;1.10;;;1.10;;
7573;SDS011;3828;48.922;9.116;2023-05-31T04:29:16;0.70;;;0.70;;
7573;SDS011;3828;48.922;9.116;2023-05-31T04:31:43;0.87;;;0.87;;
7573;SDS011;3828;48.922;9.116;2023-05-31T04:34:10;0.80;;;0.80;;
7573;SDS011;3828;48.922;9.116;2023-05-31T04:36:44;0.80;;;0.80;;
7573;SDS011;3828;48.922;9.116;2023-05-31T04:39:14;0.80;;;0.80;;
7573;SDS011;3828;48.922;9.116;2023-05-31T04:41:41;1.00;;;1.00;;
7573;SDS011;3828;48.922;9.116;2023-05-31T04:44:08;0.77;;;0.77;;
7573;SDS011;3828;48.922;9.116;2023-05-31T04:46:35;0.80;;;0.80;;
7573;SDS011;3828;48.922;9.116;2023-05-31T04:49:02;0.70;;;0.70;;
7573;SDS011;3828;48.922;9.116;2023-05-31T04:51:29;0.80;;;0.80;;
7573;SDS011;3828;48.922;9.116;2023-05-31T04:53:59;0.80;;;0.80;;
7573;SDS011;3828;48.922;9.116;2023-05-31T04:56:26;0.90;;;0.90;;
7573;SDS011;3828;48.922;9.116;2023-05-31T04:58:53;0.77;;;0.77;;
7573;SDS011;3828;48.922;9.116;2023-05-31T05:01:21;0.80;;;0.80;;
7573;SDS011;3828;48.922;9.116;2023-05-31T05:03:49;0.90;;;0.90;;
7573;SDS011;3828;48.922;9.116;2023-05-31T05:06:17;0.80;;;0.80;;
7573;SDS011;3828;48.922;9.116;2023-05-31T05:08:45;0.80;;;0.80;;
7573;SDS011;3828;48.922;9.116;2023-05-31T05:11:13;0.80;;;0.80;;
7573;SDS011;3828;48.922;9.116;2023-05-31T05:13:40;0.70;;;0.70;;
7573;SDS011;3828;48.922;9.116;2023-05-31T05:16:07;0.80;;;0.80;;
7573;SDS011;3828;48.922;9.116;2023-05-31T05:18:35;0.77;;;0.77;;
7573;SDS011;3828;48.922;9.116;2023-05-31T05:21:02;0.87;;;0.87;;
7573;SDS011;3828;48.922;9.116;2023-05-31T05:23:29;0.80;;;0.80;;
7573;SDS011;3828;48.922;9.116;2023-05-31T05:25:56;0.80;;;0.80;;
7573;SDS011;3828;48.922;9.116;2023-05-31T05:28:24;0.97;;;0.97;;
7573;SDS011;3828;48.922;9.116;2023-05-31T05:30:51;0.80;;;0.80;;
7573;SDS011;3828;48.922;9.116;2023-05-31T05:33:18;0.87;;;0.87;;
7573;SDS011;3828;48.922;9.116;2023-05-31T05:35:45;0.70;;;0.70;;
7573;SDS011;3828;48.922;9.116;2023-05-31T05:38:12;0.70;;;0.70;;
7573;SDS011;3828;48.922;9.116;2023-05-31T05:40:39;0.60;;;0.60;;
7573;SDS011;3828;48.922;9.116;2023-05-31T05:43:09;0.70;;;0.70;;
7573;SDS011;3828;48.922;9.116;2023-05-31T05:45:37;0.80;;;0.80;;
7573;SDS011;3828;48.922;9.116;2023-05-31T05:48:07;0.80;;;0.80;;
7573;SDS011;3828;48.922;9.116;2023-05-31T05:50:33;0.70;;;0.70;;
7573;SDS011;3828;48.922;9.116;2023-05-31T05:53:00;0.70;;;0.70;;
7573;SDS011;3828;48.922;9.116;2023-05-31T05:55:28;0.80;;;0.80;;
7573;SDS011;3828;48.922;9.116;2023-05-31T05:57:55;0.70;;;0.70;;
7573;SDS011;3828;48.922;9.116;2023-05-31T06:00:22;0.80;;;0.80;;
7573;SDS011;3828;48.922;9.116;2023-05-31T06:02:51;0.70;;;0.70;;
7573;SDS011;3828;48.922;9.116;2023-05-31T06:05:17;0.70;;;0.70;;
7573;SDS011;3828;48.922;9.116;2023-05-31T06:07:50;0.70;;;0.70;;
7573;SDS011;3828;48.922;9.116;2023-05-31T06:10:17;0.70;;;0.70;;
7573;SDS011;3828;48.922;9.116;2023-05-31T06:12:44;0.70;;;0.70;;
7573;SDS011;3828;48.922;9.116;2023-05-31T06:15:10;0.60;;;0.60;;
7573;SDS011;3828;48.922;9.116;2023-05-31T06:17:37;0.60;;;0.60;;
7573;SDS011;3828;48.922;9.116;2023-05-31T06:20:06;0.70;;;0.70;;
7573;SDS011;3828;48.922;9.116;2023-05-31T06:22:35;0.60;;;0.60;;
7573;SDS011;3828;48.922;9.116;2023-05-31T06:25:02;0.70;;;0.70;;
7573;SDS011;3828;48.922;9.116;2023-05-31T06:27:29;0.60;;;0.60;;
7573;SDS011;3828;48.922;9.116;2023-05-31T06:29:56;0.60;;;0.60;;
7573;SDS011;3828;48.922;9.116;2023-05-31T06:32:23;0.70;;;0.70;;
7573;SDS011;3828;48.922;9.116;2023-05-31T06:34:51;0.93;;;0.93;;
7573;SDS011;3828;48.922;9.116;2023-05-31T06:37:19;0.60;;;0.60;;
7573;SDS011;3828;48.922;9.116;2023-05-31T06:39:47;0.70;;;0.70;;
7573;SDS011;3828;48.922;9.116;2023-05-31T06:42:14;0.50;;;0.50;;
7573;SDS011;3828;48.922;9.116;2023-05-31T06:44:41;0.70;;;0.70;;
7573;SDS011;3828;48.922;9.116;2023-05-31T06:47:08;0.70;;;0.70;;
7573;SDS011;3828;48.922;9.116;2023-05-31T06:49:35;0.50;;;0.50;;
7573;SDS011;3828;48.922;9.116;2023-05-31T06:52:02;0.50;;;0.50;;
7573;SDS011;3828;48.922;9.116;2023-05-31T06:54:34;0.50;;;0.50;;
7573;SDS011;3828;48.922;9.116;2023-05-31T06:57:01;0.60;;;0.60;;
7573;SDS011;3828;48.922;9.116;2023-05-31T06:59:28;0.50;;;0.50;;
7573;SDS011;3828;48.922;9.116;2023-05-31T07:01:55;0.67;;;0.67;;
7573;SDS011;3828;48.922;9.116;2023-05-31T07:04:22;0.50;;;0.50;;
7573;SDS011;3828;48.922;9.116;2023-05-31T07:06:49;0.50;;;0.50;;
7573;SDS011;3828;48.922;9.116;2023-05-31T07:09:16;0.60;;;0.60;;
7573;SDS011;3828;48.922;9.116;2023-05-31T07:11:45;0.50;;;0.50;;
7573;SDS011;3828;48.922;9.116;2023-05-31T07:14:11;0.50;;;0.50;;
7573;SDS011;3828;48.922;9.116;2023-05-31T07:16:39;0.50;;;0.50;;
7573;SDS011;3828;48.922;9.116;2023-05-31T07:19:05;0.50;;;0.50;;
7573;SDS011;3828;48.922;9.116;2023-05-31T07:21:32;0.50;;;0.50;;
7573;SDS011;3828;48.922;9.116;2023-05-31T07:23:59;0.50;;;0.50;;
7573;SDS011;3828;48.922;9.116;2023-05-31T07:26:26;0.57;;;0.57;;
7573;SDS011;3828;48.922;9.116;2023-05-31T07:28:54;0.50;;;0.50;;
7573;SDS011;3828;48.922;9.116;2023-05-31T07:31:21;0.50;;;0.50;;
7573;SDS011;3828;48.922;9.116;2023-05-31T07:33:48;0.60;;;0.60;;
7573;SDS011;3828;48.922;9.116;2023-05-31T07:36:15;0.47;;;0.47;;
7573;SDS011;3828;48.922;9.116;2023-05-31T07:38:43;0.50;;;0.50;;
7573;SDS011;3828;48.922;9.116;2023-05-31T07:41:10;0.50;;;0.50;;
7573;SDS011;3828;48.922;9.116;2023-05-31T07:43:37;0.50;;;0.50;;
7573;SDS011;3828;48.922;9.116;2023-05-31T07:46:07;0.50;;;0.50;;
7573;SDS011;3828;48.922;9.116;2023-05-31T07:48:34;0.40;;;0.40;;
7573;SDS011;3828;48.922;9.116;2023-05-31T07:51:00;0.40;;;0.40;;
7573;SDS011;3828;48.922;9.116;2023-05-31T07:53:27;0.50;;;0.50;;
7573;SDS011;3828;48.922;9.116;2023-05-31T07:55:54;0.43;;;0.43;;
7573;SDS011;3828;48.922;9.116;2023-05-31T07:58:21;0.50;;;0.50;;
7573;SDS011;3828;48.922;9.116;2023-05-31T08:00:49;0.40;;;0.40;;
7573;SDS011;3828;48.922;9.116;2023-05-31T08:03:19;0.50;;;0.50;;
7573;SDS011;3828;48.922;9.116;2023-05-31T08:05:46;0.50;;;0.50;;
7573;SDS011;3828;48.922;9.116;2023-05-31T08:08:14;0.40;;;0.40;;
7573;SDS011;3828;48.922;9.116;2023-05-31T08:10:41;0.50;;;0.50;;
7573;SDS011;3828;48.922;9.116;2023-05-31T08:13:07;0.50;;;0.50;;
7573;SDS011;3828;48.922;9.116;2023-05-31T08:15:34;0.50;;;0.50;;
7573;SDS011;3828;48.922;9.116;2023-05-31T08:18:01;0.50;;;0.50;;
7573;SDS011;3828;48.922;9.116;2023-05-31T08:20:30;0.40;;;0.40;;
7573;SDS011;3828;48.922;9.116;2023-05-31T08:22:56;0.50;;;0.50;;
7573;SDS011;3828;48.922;9.116;2023-05-31T08:25:23;0.40;;;0.40;;
7573;SDS011;3828;48.922;9.116;2023-05-31T08:27:50;0.30;;;0.30;;
7573;SDS011;3828;48.922;9.116;2023-05-31T08:30:17;0.50;;;0.50;;
7573;SDS011;3828;48.922;9.116;2023-05-31T08:32:44;0.40;;;0.40;;
7573;SDS011;3828;48.922;9.116;2023-05-31T08:35:11;0.40;;;0.40;;
7573;SDS011;3828;48.922;9.116;2023-05-31T08:37:39;0.50;;;0.50;;
7573;SDS011;3828;48.922;9.116;2023-05-31T08:40:06;0.40;;;0.40;;
7573;SDS011;3828;48.922;9.116;2023-05-31T08:42:36;0.40;;;0.40;;
7573;SDS011;3828;48.922;9.116;2023-05-31T08:45:06;0.40;;;0.40;;
7573;SDS011;3828;48.922;9.116;2023-05-31T08:47:36;0.40;;;0.40;;
7573;SDS011;3828;48.922;9.116;2023-05-31T08:50:05;0.40;;;0.40;;
7573;SDS011;3828;48.922;9.116;2023-05-31T08:52:34;0.50;;;0.50;;
7573;SDS011;3828;48.922;9.116;2023-05-31T08:55:03;0.40;;;0.40;;
7573;SDS011;3828;48.922;9.116;2023-05-31T08:57:31;0.40;;;0.40;;
7573;SDS011;3828;48.922;9.116;2023-05-31T09:00:00;0.40;;;0.40;;
7573;SDS011;3828;48.922;9.116;2023-05-31T09:02:33;0.30;;;0.30;;
7573;SDS011;3828;48.922;9.116;2023-05-31T09:05:00;0.40;;;0.40;;
7573;SDS011;3828;48.922;9.116;2023-05-31T09:07:29;0.40;;;0.40;;
7573;SDS011;3828;48.922;9.116;2023-05-31T09:09:56;0.43;;;0.43;;
7573;SDS011;3828;48.922;9.116;2023-05-31T09:12:24;0.40;;;0.40;;
7573;SDS011;3828;48.922;9.116;2023-05-31T09:14:50;0.30;;;0.30;;
7573;SDS011;3828;48.922;9.116;2023-05-31T09:17:18;0.30;;;0.30;;
7573;SDS011;3828;48.922;9.116;2023-05-31T09:19:48;0.60;;;0.60;;
7573;SDS011;3828;48.922;9.116;2023-05-31T09:22:17;0.30;;;0.30;;
7573;SDS011;3828;48.922;9.116;2023-05-31T09:24:48;0.50;;;0.50;;
7573;SDS011;3828;48.922;9.116;2023-05-31T09:27:16;0.30;;;0.30;;
7573;SDS011;3828;48.922;9.116;2023-05-31T09:29:44;0.40;;;0.40;;
7573;SDS011;3828;48.922;9.116;2023-05-31T09:32:17;0.40;;;0.40;;
7573;SDS011;3828;48.922;9.116;2023-05-31T09:34:43;0.37;;;0.37;;
7573;SDS011;3828;48.922;9.116;2023-05-31T09:37:14;0.30;;;0.30;;
7573;SDS011;3828;48.922;9.116;2023-05-31T09:39:53;0.40;;;0.40;;
7573;SDS011;3828;48.922;9.116;2023-05-31T09:42:20;0.30;;;0.30;;
7573;SDS011;3828;48.922;9.116;2023-05-31T09:44:49;0.40;;;0.40;;
7573;SDS011;3828;48.922;9.116;2023-05-31T09:47:16;0.40;;;0.40;;
7573;SDS011;3828;48.922;9.116;2023-05-31T09:49:43;0.37;;;0.37;;
7573;SDS011;3828;48.922;9.116;2023-05-31T09:52:11;0.50;;;0.50;;
7573;SDS011;3828;48.922;9.116;2023-05-31T09:54:39;0.30;;;0.30;;
7573;SDS011;3828;48.922;9.116;2023-05-31T09:57:05;0.40;;;0.40;;
7573;SDS011;3828;48.922;9.116;2023-05-31T09:59:33;0.30;;;0.30;;
7573;SDS011;3828;48.922;9.116;2023-05-31T10:02:01;0.33;;;0.33;;
7573;SDS011;3828;48.922;9.116;2023-05-31T10:04:28;0.43;;;0.43;;
7573;SDS011;3828;48.922;9.116;2023-05-31T10:06:55;0.40;;;0.40;;
7573;SDS011;3828;48.922;9.116;2023-05-31T10:09:23;0.40;;;0.40;;
7573;SDS011;3828;48.922;9.116;2023-05-31T10:11:50;0.30;;;0.30;;
7573;SDS011;3828;48.922;9.116;2023-05-31T10:14:20;0.20;;;0.20;;
7573;SDS011;3828;48.922;9.116;2023-05-31T10:16:52;0.30;;;0.30;;
7573;SDS011;3828;48.922;9.116;2023-05-31T10:19:22;0.30;;;0.30;;
7573;SDS011;3828;48.922;9.116;2023-05-31T10:21:53;0.40;;;0.40;;
7573;SDS011;3828;48.922;9.116;2023-05-31T10:24:24;0.67;;;0.67;;
7573;SDS011;3828;48.922;9.116;2023-05-31T10:26:54;0.37;;;0.37;;
7573;SDS011;3828;48.922;9.116;2023-05-31T10:29:26;0.20;;;0.20;;
7573;SDS011;3828;48.922;9.116;2023-05-31T10:32:01;0.30;;;0.30;;
7573;SDS011;3828;48.922;9.116;2023-05-31T10:34:36;0.20;;;0.20;;
7573;SDS011;3828;48.922;9.116;2023-05-31T10:37:03;0.20;;;0.20;;
7573;SDS011;3828;48.922;9.116;2023-05-31T10:39:31;0.20;;;0.20;;
7573;SDS011;3828;48.922;9.116;2023-05-31T10:42:06;0.40;;;0.40;;
7573;SDS011;3828;48.922;9.116;2023-05-31T10:44:37;0.30;;;0.30;;
7573;SDS011;3828;48.922;9.116;2023-05-31T10:47:08;0.30;;;0.30;;
7573;SDS011;3828;48.922;9.116;2023-05-31T10:49:39;0.20;;;0.20;;
7573;SDS011;3828;48.922;9.116;2023-05-31T10:52:08;0.30;;;0.30;;
7573;SDS011;3828;48.922;9.116;2023-05-31T10:54:35;0.20;;;0.20;;
7573;SDS011;3828;48.922;9.116;2023-05-31T10:57:03;0.30;;;0.30;;
7573;SDS011;3828;48.922;9.116;2023-05-31T10:59:38;0.20;;;0.20;;
7573;SDS011;3828;48.922;9.116;2023-05-31T11:02:08;0.20;;;0.20;;
7573;SDS011;3828;48.922;9.116;2023-05-31T11:04:35;0.20;;;0.20;;
7573;SDS011;3828;48.922;9.116;2023-05-31T11:07:14;0.20;;;0.20;;
7573;SDS011;3828;48.922;9.116;2023-05-31T11:09:53;0.27;;;0.27;;
7573;SDS011;3828;48.922;9.116;2023-05-31T11:12:31;0.30;;;0.30;;
7573;SDS011;3828;48.922;9.116;2023-05-31T11:14:59;0.40;;;0.40;;
7573;SDS011;3828;48.922;9.116;2023-05-31T11:17:27;0.20;;;0.20;;
7573;SDS011;3828;48.922;9.116;2023-05-31T11:19:53;0.30;;;0.30;;
7573;SDS011;3828;48.922;9.116;2023-05-31T11:22:24;0.57;;;0.57;;
7573;SDS011;3828;48.922;9.116;2023-05-31T11:24:52;0.30;;;0.30;;
7573;SDS011;3828;48.922;9.116;2023-05-31T11:27:22;0.60;;;0.60;;
7573;SDS011;3828;48.922;9.116;2023-05-31T11:29:55;0.10;;;0.10;;
7573;SDS011;3828;48.922;9.116;2023-05-31T11:35:20;0.10;;;0.10;;
7573;SDS011;3828;48.922;9.116;2023-05-31T11:37:50;0.10;;;0.10;;
7573;SDS011;3828;48.922;9.116;2023-05-31T11:40:32;0.23;;;0.23;;
7573;SDS011;3828;48.922;9.116;2023-05-31T11:43:07;0.20;;;0.20;;
7573;SDS011;3828;48.922;9.116;2023-05-31T11:45:39;1.03;;;1.03;;
7573;SDS011;3828;48.922;9.116;2023-05-31T11:48:14;0.20;;;0.20;;
7573;SDS011;3828;48.922;9.116;2023-05-31T11:50:50;0.30;;;0.30;;
7573;SDS011;3828;48.922;9.116;2023-05-31T11:53:18;0.17;;;0.17;;
7573;SDS011;3828;48.922;9.116;2023-05-31T11:55:45;0.10;;;0.10;;
7573;SDS011;3828;48.922;9.116;2023-05-31T11:58:13;0.20;;;0.20;;
7573;SDS011;3828;48.922;9.116;2023-05-31T12:00:42;0.20;;;0.20;;
7573;SDS011;3828;48.922;9.116;2023-05-31T12:03:13;0.20;;;0.20;;
7573;SDS011;3828;48.922;9.116;2023-05-31T12:05:42;0.20;;;0.20;;
7573;SDS011;3828;48.922;9.116;2023-05-31T12:08:09;0.30;;;0.30;;
7573;SDS011;3828;48.922;9.116;2023-05-31T12:10:40;0.17;;;0.17;;
7573;SDS011;3828;48.922;9.116;2023-05-31T12:13:07;0.20;;;0.20;;
7573;SDS011;3828;48.922;9.116;2023-05-31T12:15:35;0.20;;;0.20;;
7573;SDS011;3828;48.922;9.116;2023-05-31T12:18:01;0.20;;;0.20;;
7573;SDS011;3828;48.922;9.116;2023-05-31T12:20:29;0.20;;;0.20;;
7573;SDS011;3828;48.922;9.116;2023-05-31T12:23:08;0.20;;;0.20;;
7573;SDS011;3828;48.922;9.116;2023-05-31T12:25:44;0.20;;;0.20;;
7573;SDS011;3828;48.922;9.116;2023-05-31T12:28:11;0.57;;;0.57;;
7573;SDS011;3828;48.922;9.116;2023-05-31T12:30:45;0.23;;;0.23;;
7573;SDS011;3828;48.922;9.116;2023-05-31T12:33:13;0.50;;;0.50;;
7573;SDS011;3828;48.922;9.116;2023-05-31T12:35:41;0.20;;;0.20;;
7573;SDS011;3828;48.922;9.116;2023-05-31T12:38:08;0.50;;;0.50;;
7573;SDS011;3828;48.922;9.116;2023-05-31T12:40:39;0.40;;;0.40;;
7573;SDS011;3828;48.922;9.116;2023-05-31T12:43:09;0.37;;;0.37;;
7573;SDS011;3828;48.922;9.116;2023-05-31T12:45:38;0.50;;;0.50;;
7573;SDS011;3828;48.922;9.116;2023-05-31T12:48:06;0.63;;;0.63;;
7573;SDS011;3828;48.922;9.116;2023-05-31T12:50:34;0.30;;;0.30;;
7573;SDS011;3828;48.922;9.116;2023-05-31T12:53:01;0.40;;;0.40;;
7573;SDS011;3828;48.922;9.116;2023-05-31T12:55:32;0.30;;;0.30;;
7573;SDS011;3828;48.922;9.116;2023-05-31T12:57:59;0.30;;;0.30;;
7573;SDS011;3828;48.922;9.116;2023-05-31T13:00:28;0.20;;;0.20;;
7573;SDS011;3828;48.922;9.116;2023-05-31T13:02:55;0.20;;;0.20;;
7573;SDS011;3828;48.922;9.116;2023-05-31T13:05:22;0.70;;;0.70;;
7573;SDS011;3828;48.922;9.116;2023-05-31T13:07:51;0.40;;;0.40;;
7573;SDS011;3828;48.922;9.116;2023-05-31T13:10:18;0.40;;;0.40;;
7573;SDS011;3828;48.922;9.116;2023-05-31T13:12:45;0.40;;;0.40;;
7573;SDS011;3828;48.922;9.116;2023-05-31T13:15:12;0.30;;;0.30;;
7573;SDS011;3828;48.922;9.116;2023-05-31T13:17:40;0.30;;;0.30;;
7573;SDS011;3828;48.922;9.116;2023-05-31T13:20:07;0.20;;;0.20;;
7573;SDS011;3828;48.922;9.116;2023-05-31T13:22:35;0.30;;;0.30;;
7573;SDS011;3828;48.922;9.116;2023-05-31T13:25:02;0.30;;;0.30;;
7573;SDS011;3828;48.922;9.116;2023-05-31T13:27:29;0.20;;;0.20;;
7573;SDS011;3828;48.922;9.116;2023-05-31T13:29:56;0.30;;;0.30;;
7573;SDS011;3828;48.922;9.116;2023-05-31T13:32:23;0.30;;;0.30;;
7573;SDS011;3828;48.922;9.116;2023-05-31T13:34:51;0.20;;;0.20;;
7573;SDS011;3828;48.922;9.116;2023-05-31T13:37:18;0.20;;;0.20;;
7573;SDS011;3828;48.922;9.116;2023-05-31T13:39:46;0.30;;;0.30;;
7573;SDS011;3828;48.922;9.116;2023-05-31T13:42:13;0.27;;;0.27;;
7573;SDS011;3828;48.922;9.116;2023-05-31T13:44:40;0.30;;;0.30;;
7573;SDS011;3828;48.922;9.116;2023-05-31T13:47:07;0.20;;;0.20;;
7573;SDS011;3828;48.922;9.116;2023-05-31T13:49:35;0.30;;;0.30;;
7573;SDS011;3828;48.922;9.116;2023-05-31T13:52:05;0.67;;;0.67;;
7573;SDS011;3828;48.922;9.116;2023-05-31T13:54:34;1.17;;;1.17;;
7573;SDS011;3828;48.922;9.116;2023-05-31T13:57:03;0.60;;;0.60;;
7573;SDS011;3828;48.922;9.116;2023-05-31T13:59:30;0.20;;;0.20;;
7573;SDS011;3828;48.922;9.116;2023-05-31T14:01:57;0.50;;;0.50;;
7573;SDS011;3828;48.922;9.116;2023-05-31T14:04:24;0.30;;;0.30;;
7573;SDS011;3828;48.922;9.116;2023-05-31T14:06:51;0.50;;;0.50;;
7573;SDS011;3828;48.922;9.116;2023-05-31T14:09:20;0.30;;;0.30;;
7573;SDS011;3828;48.922;9.116;2023-05-31T14:11:47;0.30;;;0.30;;
7573;SDS011;3828;48.922;9.116;2023-05-31T14:14:14;0.33;;;0.33;;
7573;SDS011;3828;48.922;9.116;2023-05-31T14:16:41;0.20;;;0.20;;
7573;SDS011;3828;48.922;9.116;2023-05-31T14:19:08;0.47;;;0.47;;
7573;SDS011;3828;48.922;9.116;2023-05-31T14:21:35;0.20;;;0.20;;
7573;SDS011;3828;48.922;9.116;2023-05-31T14:24:02;0.30;;;0.30;;
7573;SDS011;3828;48.922;9.116;2023-05-31T14:26:31;0.93;;;0.93;;
7573;SDS011;3828;48.922;9.116;2023-05-31T14:28:57;0.50;;;0.50;;
7573;SDS011;3828;48.922;9.116;2023-05-31T14:31:24;0.30;;;0.30;;
7573;SDS011;3828;48.922;9.116;2023-05-31T14:33:51;0.30;;;0.30;;
7573;SDS011;3828;48.922;9.116;2023-05-31T14:36:18;1.00;;;1.00;;
7573;SDS011;3828;48.922;9.116;2023-05-31T14:38:45;0.30;;;0.30;;
7573;SDS011;3828;48.922;9.116;2023-05-31T14:41:13;0.50;;;0.50;;
7573;SDS011;3828;48.922;9.116;2023-05-31T14:43:41;0.30;;;0.30;;
7573;SDS011;3828;48.922;9.116;2023-05-31T14:46:08;0.30;;;0.30;;
7573;SDS011;3828;48.922;9.116;2023-05-31T14:48:35;0.30;;;0.30;;
7573;SDS011;3828;48.922;9.116;2023-05-31T14:51:02;0.20;;;0.20;;
7573;SDS011;3828;48.922;9.116;2023-05-31T14:53:29;0.30;;;0.30;;
7573;SDS011;3828;48.922;9.116;2023-05-31T14:55:56;0.40;;;0.40;;
7573;SDS011;3828;48.922;9.116;2023-05-31T14:58:24;1.33;;;1.33;;
7573;SDS011;3828;48.922;9.116;2023-05-31T15:00:54;0.40;;;0.40;;
7573;SDS011;3828;48.922;9.116;2023-05-31T15:03:21;0.30;;;0.30;;
7573;SDS011;3828;48.922;9.116;2023-05-31T15:05:48;0.20;;;0.20;;
7573;SDS011;3828;48.922;9.116;2023-05-31T15:08:15;0.30;;;0.30;;
7573;SDS011;3828;48.922;9.116;2023-05-31T15:10:44;0.40;;;0.40;;
7573;SDS011;3828;48.922;9.116;2023-05-31T15:13:11;0.27;;;0.27;;
7573;SDS011;3828;48.922;9.116;2023-05-31T15:15:38;0.60;;;0.60;;
7573;SDS011;3828;48.922;9.116;2023-05-31T15:18:07;0.27;;;0.27;;
7573;SDS011;3828;48.922;9.116;2023-05-31T15:20:34;0.20;;;0.20;;
7573;SDS011;3828;48.922;9.116;2023-05-31T15:23:01;0.30;;;0.30;;